Time;durP1;ratioP1;P1;durP2;ratioP2;P2;SDS_P1;SDS_P2;PMS_P1;PMS_P2;Temp;Humidity;BMP_temperature;BMP_pressure;BME280_temperature;BME280_humidity;BME280_pressure;Samples;Min_cycle;Max_cycle;Signal;HPM_P1;HPM_P2
2023/06/28 00:01:39;;;;;;;3.40;1.95;;;16.20;99.90;;;;;;4969217;28;20027;-63
2023/06/28 00:04:05;;;;;;;6.20;2.15;;;16.20;99.90;;;;;;4939928;28;20070;-62
2023/06/28 00:06:31;;;;;;;5.55;2.20;;;16.20;99.90;;;;;;4967303;28;20071;-64
2023/06/28 00:08:58;;;;;;;3.92;2.28;;;16.20;99.90;;;;;;4963115;28;20035;-64
2023/06/28 00:11:25;;;;;;;7.18;2.22;;;16.20;99.90;;;;;;4965040;28;20027;-64
2023/06/28 00:13:51;;;;;;;11.38;2.88;;;16.30;99.90;;;;;;4968145;28;20038;-63
2023/06/28 00:16:17;;;;;;;10.32;2.60;;;16.30;99.90;;;;;;4965344;28;20397;-63
2023/06/28 00:18:45;;;;;;;7.15;2.42;;;16.20;99.90;;;;;;4966163;28;20027;-61
2023/06/28 00:21:14;;;;;;;9.75;2.25;;;16.20;99.90;;;;;;4966285;28;20497;-62
2023/06/28 00:23:40;;;;;;;6.68;2.00;;;16.20;99.90;;;;;;4962385;28;20401;-63
2023/06/28 00:26:06;;;;;;;9.23;2.47;;;16.20;99.90;;;;;;4955230;28;20059;-64
2023/06/28 00:28:32;;;;;;;5.93;1.98;;;16.20;99.90;;;;;;4961597;28;20058;-63
2023/06/28 00:30:58;;;;;;;3.90;2.30;;;16.20;99.90;;;;;;4963747;28;20031;-59
2023/06/28 00:33:23;;;;;;;6.35;1.90;;;16.20;99.90;;;;;;4971570;28;20481;-64
2023/06/28 00:35:49;;;;;;;6.63;1.88;;;16.20;99.90;;;;;;4969189;28;20045;-63
2023/06/28 00:38:15;;;;;;;4.57;1.50;;;16.20;99.90;;;;;;4964766;28;20098;-64
2023/06/28 00:40:40;;;;;;;3.15;1.60;;;16.20;99.90;;;;;;4957761;28;20040;-63
2023/06/28 00:43:06;;;;;;;3.85;1.95;;;16.20;99.90;;;;;;4963153;28;20034;-62
2023/06/28 00:45:31;;;;;;;6.13;1.83;;;16.20;99.90;;;;;;4970480;28;20154;-63
2023/06/28 00:47:58;;;;;;;5.95;1.95;;;16.10;99.90;;;;;;4968985;28;20031;-63
2023/06/28 00:50:24;;;;;;;8.63;2.20;;;16.10;99.90;;;;;;4964773;28;20037;-65
2023/06/28 00:52:50;;;;;;;5.60;1.90;;;16.10;99.90;;;;;;4988420;28;20030;-65
2023/06/28 00:55:16;;;;;;;8.05;1.75;;;16.10;99.90;;;;;;4963594;28;20042;-65
2023/06/28 00:57:42;;;;;;;5.60;1.98;;;16.10;99.90;;;;;;4970490;28;20023;-64
2023/06/28 01:00:12;;;;;;;4.95;1.50;;;16.10;99.90;;;;;;4965997;28;20070;-64
2023/06/28 01:02:40;;;;;;;5.25;2.40;;;16.10;99.90;;;;;;4967785;28;20073;-63
2023/06/28 01:05:06;;;;;;;7.30;1.80;;;16.00;99.90;;;;;;4950898;28;20058;-64
2023/06/28 01:07:34;;;;;;;6.13;2.00;;;16.00;99.90;;;;;;4975486;28;20412;-64
2023/06/28 01:10:00;;;;;;;5.20;2.10;;;16.00;99.90;;;;;;4973981;28;20022;-63
2023/06/28 01:12:26;;;;;;;4.50;1.88;;;16.00;99.90;;;;;;4973624;28;20070;-64
2023/06/28 01:14:51;;;;;;;6.47;2.33;;;16.00;99.90;;;;;;4970184;28;20078;-64
2023/06/28 01:17:17;;;;;;;11.32;2.67;;;16.00;99.90;;;;;;4976648;28;20034;-63
2023/06/28 01:19:43;;;;;;;3.72;2.08;;;16.00;99.90;;;;;;4970949;28;20070;-65
2023/06/28 01:22:12;;;;;;;5.20;1.98;;;16.00;99.90;;;;;;4968573;28;20520;-65
2023/06/28 01:24:38;;;;;;;7.82;1.67;;;16.00;99.90;;;;;;4969194;28;20030;-64
2023/06/28 01:27:08;;;;;;;4.35;1.92;;;16.00;99.90;;;;;;4970281;28;20022;-64
2023/06/28 01:29:34;;;;;;;4.47;1.95;;;16.00;99.90;;;;;;4968273;28;20039;-62
2023/06/28 01:32:03;;;;;;;6.15;1.90;;;15.90;99.90;;;;;;4976513;28;20035;-64
2023/06/28 01:34:29;;;;;;;6.78;1.90;;;16.00;99.90;;;;;;4976302;28;20576;-59
2023/06/28 01:36:57;;;;;;;3.70;1.50;;;15.90;99.90;;;;;;4963979;28;20127;-64
2023/06/28 01:39:25;;;;;;;6.95;1.55;;;15.90;99.90;;;;;;4974323;28;20031;-63
2023/06/28 01:41:51;;;;;;;4.63;1.48;;;15.90;99.90;;;;;;4986536;28;20118;-63
2023/06/28 01:44:17;;;;;;;6.32;2.88;;;15.90;99.90;;;;;;4983937;28;20023;-62
2023/06/28 01:46:44;;;;;;;2.22;1.48;;;15.90;99.90;;;;;;4990280;28;20031;-63
2023/06/28 01:49:10;;;;;;;8.40;2.10;;;15.90;99.90;;;;;;4981327;28;20830;-64
2023/06/28 01:51:36;;;;;;;5.50;2.22;;;15.90;99.90;;;;;;4978530;28;20038;-64
2023/06/28 01:54:02;;;;;;;7.32;2.45;;;15.90;99.90;;;;;;4982685;28;20035;-63
2023/06/28 01:56:28;;;;;;;6.57;1.63;;;15.90;99.90;;;;;;4981369;28;20556;-64
2023/06/28 01:58:54;;;;;;;2.47;1.45;;;15.90;99.90;;;;;;4983342;28;20113;-65
2023/06/28 02:01:20;;;;;;;8.15;1.90;;;15.90;99.90;;;;;;4982430;28;20085;-63
2023/06/28 02:03:45;;;;;;;6.75;2.42;;;15.90;99.90;;;;;;4989935;28;20030;-63
2023/06/28 02:06:11;;;;;;;5.22;1.90;;;15.90;99.90;;;;;;4982495;28;20034;-65
2023/06/28 02:08:36;;;;;;;8.07;1.85;;;15.80;99.90;;;;;;4977049;28;20027;-63
2023/06/28 02:11:02;;;;;;;5.03;3.35;;;15.90;99.90;;;;;;4981015;28;20420;-63
2023/06/28 02:13:28;;;;;;;8.55;2.15;;;15.90;99.90;;;;;;4985296;28;20031;-59
2023/06/28 02:15:55;;;;;;;4.13;1.67;;;15.80;99.90;;;;;;4976754;28;20034;-67
2023/06/28 02:18:24;;;;;;;4.43;2.28;;;15.80;99.90;;;;;;4984213;28;20034;-63
2023/06/28 02:20:53;;;;;;;5.80;1.73;;;15.80;99.90;;;;;;4980513;28;20022;-62
2023/06/28 02:23:19;;;;;;;5.18;1.63;;;15.80;99.90;;;;;;4981157;28;20039;-64
2023/06/28 02:25:45;;;;;;;6.45;1.77;;;15.80;99.90;;;;;;4977793;28;20035;-65
2023/06/28 02:28:10;;;;;;;3.03;1.70;;;15.80;99.90;;;;;;4985909;28;20037;-61
2023/06/28 02:30:36;;;;;;;4.13;2.05;;;15.70;99.90;;;;;;4983125;28;20026;-64
2023/06/28 02:33:02;;;;;;;7.72;2.00;;;15.70;99.90;;;;;;4980716;28;20027;-64
2023/06/28 02:35:27;;;;;;;6.47;2.00;;;15.60;99.90;;;;;;4980756;28;20097;-60
2023/06/28 02:37:53;;;;;;;5.57;1.45;;;15.60;99.90;;;;;;4996379;28;20488;-63
2023/06/28 02:40:19;;;;;;;7.95;1.73;;;15.60;99.90;;;;;;4978531;28;20050;-64
2023/06/28 02:42:45;;;;;;;5.50;1.63;;;15.50;99.90;;;;;;4982791;28;20053;-65
2023/06/28 02:45:10;;;;;;;3.88;1.70;;;15.50;99.90;;;;;;4977681;28;20480;-65
2023/06/28 02:47:37;;;;;;;4.75;1.80;;;15.40;99.90;;;;;;4979467;28;20433;-63
2023/06/28 02:50:05;;;;;;;5.50;1.98;;;15.30;99.90;;;;;;4984042;28;20703;-61
2023/06/28 02:52:32;;;;;;;7.90;1.60;;;15.30;99.90;;;;;;4968648;28;20424;-64
2023/06/28 02:54:57;;;;;;;6.82;1.83;;;15.20;99.90;;;;;;4975765;28;20467;-63
2023/06/28 02:57:23;;;;;;;4.47;1.67;;;15.10;99.90;;;;;;4975647;28;20059;-63
2023/06/28 02:59:49;;;;;;;5.22;1.75;;;15.10;99.90;;;;;;4980854;28;20030;-64
2023/06/28 03:02:16;;;;;;;5.05;1.58;;;15.00;99.90;;;;;;4973655;28;20114;-65
2023/06/28 03:04:41;;;;;;;7.40;1.88;;;14.90;99.90;;;;;;4954972;28;20030;-63
2023/06/28 03:07:13;;;;;;;5.35;1.50;;;14.90;99.90;;;;;;4988274;28;20077;-63
2023/06/28 03:09:38;;;;;;;5.03;1.90;;;14.80;99.90;;;;;;4995107;28;20127;-62
2023/06/28 03:12:04;;;;;;;6.05;2.13;;;14.80;99.90;;;;;;4976339;28;20137;-64
2023/06/28 03:14:30;;;;;;;11.02;2.00;;;14.80;99.90;;;;;;4979040;28;20038;-64
2023/06/28 03:16:55;;;;;;;3.53;1.50;;;14.80;99.90;;;;;;4979464;28;20026;-63
2023/06/28 03:19:21;;;;;;;5.70;2.03;;;14.70;99.90;;;;;;4986272;28;20034;-63
2023/06/28 03:21:46;;;;;;;4.80;1.52;;;14.70;99.90;;;;;;4980714;28;20514;-63
2023/06/28 03:24:12;;;;;;;4.47;1.80;;;14.70;99.90;;;;;;4975780;28;20050;-64
2023/06/28 03:26:37;;;;;;;9.23;2.25;;;14.70;99.90;;;;;;4978914;28;20026;-63
2023/06/28 03:29:03;;;;;;;4.88;1.75;;;14.70;99.90;;;;;;4977096;28;20035;-63
2023/06/28 03:31:31;;;;;;;6.32;1.90;;;14.60;99.90;;;;;;4971043;28;20065;-58
2023/06/28 03:33:57;;;;;;;2.95;1.73;;;14.60;99.90;;;;;;4972738;28;20070;-64
2023/06/28 03:36:24;;;;;;;6.38;1.55;;;14.60;99.90;;;;;;4977374;28;20027;-62
2023/06/28 03:38:49;;;;;;;6.55;1.70;;;14.60;99.90;;;;;;4972578;28;20031;-67
2023/06/28 03:41:15;;;;;;;10.30;2.03;;;14.60;99.90;;;;;;4969182;28;20034;-65
2023/06/28 03:43:40;;;;;;;3.45;1.80;;;14.60;99.90;;;;;;4974475;28;20027;-63
2023/06/28 03:46:06;;;;;;;7.10;2.20;;;14.60;99.90;;;;;;4976700;28;20543;-63
2023/06/28 03:48:32;;;;;;;4.72;1.67;;;14.60;99.90;;;;;;4984247;28;20027;-63
2023/06/28 03:50:57;;;;;;;5.65;2.35;;;14.60;99.90;;;;;;4979966;28;20070;-63
2023/06/28 03:53:23;;;;;;;8.23;2.40;;;14.60;99.90;;;;;;4977235;28;20041;-62
2023/06/28 03:55:48;;;;;;;4.60;1.70;;;14.70;99.90;;;;;;4984791;28;20035;-63
2023/06/28 03:58:14;;;;;;;9.32;2.00;;;14.70;99.90;;;;;;4989943;28;20034;-63
2023/06/28 04:00:41;;;;;;;4.05;1.83;;;14.80;99.90;;;;;;4981032;28;20399;-65
2023/06/28 04:03:07;;;;;;;6.15;1.70;;;14.90;99.90;;;;;;4978355;28;20438;-62
2023/06/28 04:05:32;;;;;;;8.52;2.05;;;15.00;99.90;;;;;;4957036;28;20046;-61
2023/06/28 04:07:58;;;;;;;4.68;2.28;;;15.10;99.90;;;;;;4983424;28;20106;-64
2023/06/28 04:10:25;;;;;;;4.78;2.20;;;15.20;99.90;;;;;;4978748;28;20030;-64
2023/06/28 04:12:51;;;;;;;3.88;1.73;;;15.20;99.90;;;;;;4975355;28;20031;-64
2023/06/28 04:15:16;;;;;;;6.22;2.20;;;15.20;99.90;;;;;;4975004;28;20026;-62
2023/06/28 04:17:42;;;;;;;4.22;1.88;;;15.30;99.90;;;;;;4987416;28;20073;-62
2023/06/28 04:20:08;;;;;;;3.78;1.65;;;15.40;99.90;;;;;;4997450;28;20039;-63
2023/06/28 04:22:34;;;;;;;9.02;2.28;;;15.50;99.90;;;;;;4976794;28;20038;-62
2023/06/28 04:24:59;;;;;;;9.35;2.58;;;15.60;99.90;;;;;;4973706;28;20069;-63
2023/06/28 04:27:26;;;;;;;3.55;1.65;;;15.60;99.90;;;;;;4983293;28;20396;-63
2023/06/28 04:29:51;;;;;;;8.43;2.58;;;15.80;99.90;;;;;;4978395;28;20553;-63
2023/06/28 04:32:23;;;;;;;6.45;2.45;;;15.90;99.90;;;;;;4973931;28;20035;-64
2023/06/28 04:34:52;;;;;;;5.07;1.83;;;16.00;99.90;;;;;;4987508;28;20019;-64
2023/06/28 04:37:21;;;;;;;11.70;2.22;;;16.20;99.90;;;;;;4982289;28;20117;-63
2023/06/28 04:39:47;;;;;;;4.45;1.95;;;16.40;99.90;;;;;;4976416;28;20058;-63
2023/06/28 04:42:15;;;;;;;8.23;2.60;;;17.00;99.90;;;;;;4978525;28;20039;-64
2023/06/28 04:44:43;;;;;;;5.70;2.45;;;17.60;99.90;;;;;;4978749;28;20026;-64
2023/06/28 04:47:09;;;;;;;6.57;2.25;;;18.20;99.90;;;;;;4982825;28;20037;-64
2023/06/28 04:49:35;;;;;;;6.28;2.05;;;18.70;99.90;;;;;;4977683;28;20761;-63
2023/06/28 04:52:01;;;;;;;5.05;2.30;;;19.20;99.90;;;;;;4983259;28;20071;-65
2023/06/28 04:54:26;;;;;;;6.68;2.20;;;19.20;99.90;;;;;;4971346;28;20030;-64
2023/06/28 04:56:52;;;;;;;11.40;2.10;;;18.90;99.90;;;;;;4979546;28;20033;-66
2023/06/28 04:59:17;;;;;;;3.95;1.80;;;18.90;99.90;;;;;;4981675;28;20033;-63
2023/06/28 05:01:43;;;;;;;8.25;2.20;;;19.50;99.90;;;;;;4981811;28;20152;-64
2023/06/28 05:04:08;;;;;;;5.75;1.75;;;19.90;99.90;;;;;;4976206;28;20500;-64
2023/06/28 05:06:37;;;;;;;3.58;2.08;;;20.10;99.90;;;;;;4950778;28;20062;-65
2023/06/28 05:09:03;;;;;;;5.93;2.70;;;20.20;99.90;;;;;;4979349;28;20109;-63
2023/06/28 05:11:28;;;;;;;6.25;1.92;;;20.20;99.90;;;;;;4978234;28;20071;-63
2023/06/28 05:13:54;;;;;;;5.38;2.30;;;19.90;99.90;;;;;;4982632;28;20092;-63
2023/06/28 05:16:20;;;;;;;8.48;2.25;;;19.90;99.90;;;;;;4980711;28;20583;-65
2023/06/28 05:18:46;;;;;;;8.23;2.35;;;20.60;99.90;;;;;;4990735;28;20061;-63
2023/06/28 05:21:12;;;;;;;4.50;2.10;;;21.10;99.90;;;;;;4982109;28;20117;-63
2023/06/28 05:23:37;;;;;;;6.70;1.95;;;20.90;99.90;;;;;;4985550;28;20396;-64
2023/06/28 05:26:03;;;;;;;6.35;2.05;;;21.20;99.90;;;;;;4979498;28;20035;-65
2023/06/28 05:28:29;;;;;;;3.70;1.70;;;20.70;99.90;;;;;;4988003;28;20030;-63
2023/06/28 05:30:55;;;;;;;4.88;2.20;;;20.20;99.90;;;;;;4985461;28;20038;-63
2023/06/28 05:33:20;;;;;;;8.18;2.50;;;20.40;99.90;;;;;;4989018;28;20128;-62
2023/06/28 05:35:48;;;;;;;7.97;1.92;;;20.60;99.90;;;;;;4983357;28;20034;-64
2023/06/28 05:38:14;;;;;;;6.55;2.42;;;20.50;99.90;;;;;;4986434;28;20037;-63
2023/06/28 05:40:39;;;;;;;6.78;2.05;;;20.50;99.90;;;;;;4985628;28;20022;-65
2023/06/28 05:43:05;;;;;;;6.20;2.45;;;20.10;99.90;;;;;;4985148;28;20030;-63
2023/06/28 05:45:31;;;;;;;3.35;1.73;;;20.30;99.90;;;;;;4979443;28;20547;-60
2023/06/28 05:47:57;;;;;;;3.40;1.63;;;20.10;99.90;;;;;;4984760;28;20031;-63
2023/06/28 05:50:23;;;;;;;5.28;2.50;;;19.90;99.90;;;;;;4979214;28;20022;-63
2023/06/28 05:52:49;;;;;;;6.13;1.95;;;19.70;99.90;;;;;;4986700;28;20076;-63
2023/06/28 05:55:16;;;;;;;4.60;1.90;;;19.50;99.90;;;;;;4982064;28;20061;-65
2023/06/28 05:57:42;;;;;;;6.65;1.90;;;19.40;99.90;;;;;;4978803;28;20031;-64
2023/06/28 06:00:09;;;;;;;3.47;1.90;;;19.30;99.90;;;;;;4983194;28;20429;-64
2023/06/28 06:02:35;;;;;;;3.97;1.98;;;19.40;99.90;;;;;;4978781;28;20130;-65
2023/06/28 06:05:02;;;;;;;5.68;1.90;;;19.40;99.90;;;;;;4982251;28;20070;-64
2023/06/28 06:07:28;;;;;;;4.75;2.45;;;19.30;99.90;;;;;;4962107;28;20050;-62
2023/06/28 06:09:55;;;;;;;5.90;1.95;;;19.10;99.90;;;;;;4985075;28;20034;-64
2023/06/28 06:12:21;;;;;;;4.53;2.17;;;19.00;99.90;;;;;;4981915;28;20034;-64
2023/06/28 06:14:50;;;;;;;3.90;2.08;;;19.00;99.90;;;;;;4984247;28;20031;-65
2023/06/28 06:17:18;;;;;;;6.70;2.17;;;19.00;99.90;;;;;;4987793;28;20038;-64
2023/06/28 06:19:44;;;;;;;6.88;2.33;;;18.90;99.90;;;;;;4988260;28;20087;-64
2023/06/28 06:22:09;;;;;;;6.57;2.35;;;18.80;99.90;;;;;;4985072;28;20058;-65
2023/06/28 06:24:35;;;;;;;5.65;2.28;;;18.70;99.90;;;;;;4983858;28;20035;-63
2023/06/28 06:27:02;;;;;;;6.65;2.15;;;18.70;99.90;;;;;;4985961;28;20033;-63
2023/06/28 06:29:27;;;;;;;8.25;2.58;;;18.60;99.90;;;;;;4976423;28;20038;-63
2023/06/28 06:31:53;;;;;;;5.53;2.20;;;18.40;99.90;;;;;;4982882;28;20037;-64
2023/06/28 06:34:18;;;;;;;7.10;2.53;;;18.30;99.90;;;;;;4982115;28;20065;-64
2023/06/28 06:36:44;;;;;;;6.38;2.08;;;18.40;99.90;;;;;;4985601;28;20414;-65
2023/06/28 06:39:10;;;;;;;8.70;2.67;;;18.30;99.90;;;;;;4982780;28;20172;-63
2023/06/28 06:41:35;;;;;;;6.30;2.08;;;18.50;99.90;;;;;;4979910;28;20152;-63
2023/06/28 06:44:01;;;;;;;5.90;2.05;;;18.40;99.90;;;;;;4979475;28;20031;-64
2023/06/28 06:46:26;;;;;;;3.55;2.40;;;18.50;99.90;;;;;;4982003;28;20038;-64
2023/06/28 06:48:52;;;;;;;5.35;1.77;;;18.40;99.90;;;;;;4981279;28;20037;-62
2023/06/28 06:51:18;;;;;;;6.28;2.25;;;18.50;99.90;;;;;;4981092;28;20129;-63
2023/06/28 06:53:43;;;;;;;6.03;2.15;;;18.40;99.90;;;;;;4983981;28;20096;-63
2023/06/28 06:56:09;;;;;;;5.90;2.65;;;18.40;99.90;;;;;;4972821;28;20036;-62
2023/06/28 06:58:36;;;;;;;5.60;2.20;;;18.40;99.90;;;;;;4987771;28;20035;-62
2023/06/28 07:01:02;;;;;;;4.72;2.08;;;18.60;99.90;;;;;;4980654;28;20022;-60
2023/06/28 07:03:28;;;;;;;6.25;2.30;;;18.60;99.90;;;;;;4985767;28;20098;-63
2023/06/28 07:05:53;;;;;;;2.58;1.88;;;18.70;99.90;;;;;;4985517;28;20468;-63
2023/06/28 07:08:19;;;;;;;7.72;1.88;;;18.80;99.90;;;;;;4950980;28;20058;-63
2023/06/28 07:10:44;;;;;;;4.95;2.00;;;19.00;99.90;;;;;;4985910;28;20113;-61
2023/06/28 07:13:10;;;;;;;5.13;2.55;;;19.20;99.90;;;;;;4967637;28;20449;-64
2023/06/28 07:15:36;;;;;;;2.20;1.65;;;19.30;99.90;;;;;;4973107;28;20027;-63
2023/06/28 07:18:01;;;;;;;4.63;2.10;;;19.70;99.90;;;;;;4974467;28;20460;-62
2023/06/28 07:20:27;;;;;;;3.55;1.95;;;20.10;99.90;;;;;;4971822;28;20030;-64
2023/06/28 07:22:53;;;;;;;4.70;2.08;;;20.60;99.90;;;;;;5004045;28;20082;-62
2023/06/28 07:25:18;;;;;;;6.22;2.15;;;21.10;99.90;;;;;;4975295;28;20110;-63
2023/06/28 07:27:44;;;;;;;7.60;1.60;;;21.30;99.90;;;;;;4964775;28;20062;-64
2023/06/28 07:30:10;;;;;;;6.03;1.63;;;22.40;99.90;;;;;;4968074;28;20061;-63
2023/06/28 07:32:35;;;;;;;5.50;2.30;;;23.10;99.90;;;;;;4969220;28;20110;-64
2023/06/28 07:35:01;;;;;;;6.03;1.20;;;23.50;97.50;;;;;;4973426;28;20027;-61
2023/06/28 07:37:27;;;;;;;6.75;2.33;;;23.30;95.80;;;;;;4966331;28;20027;-63
2023/06/28 07:39:52;;;;;;;4.95;1.58;;;22.90;95.30;;;;;;4977097;28;20540;-63
2023/06/28 07:42:21;;;;;;;3.85;1.55;;;22.90;96.10;;;;;;4968819;28;20039;-62
2023/06/28 07:44:47;;;;;;;4.20;1.52;;;22.80;94.20;;;;;;4967290;28;20019;-64
2023/06/28 07:47:13;;;;;;;7.25;1.70;;;23.20;96.20;;;;;;4965438;28;20062;-62
2023/06/28 07:49:38;;;;;;;7.60;1.38;;;24.60;93.50;;;;;;4971814;28;20134;-64
2023/06/28 07:52:04;;;;;;;6.60;1.95;;;25.60;90.80;;;;;;4968363;28;20073;-63
2023/06/28 07:54:30;;;;;;;3.35;1.27;;;25.50;85.70;;;;;;4966645;28;20031;-64
2023/06/28 07:56:56;;;;;;;5.25;1.67;;;26.40;84.70;;;;;;4970852;28;20031;-65
2023/06/28 07:59:21;;;;;;;6.82;1.65;;;25.70;86.40;;;;;;4968392;28;20038;-63
2023/06/28 08:01:48;;;;;;;5.63;2.03;;;24.90;85.90;;;;;;4968678;28;20033;-64
2023/06/28 08:04:15;;;;;;;3.95;1.50;;;24.10;89.50;;;;;;4967799;28;20892;-63
2023/06/28 08:06:42;;;;;;;6.45;2.33;;;23.60;88.60;;;;;;4969244;28;20855;-64
2023/06/28 08:09:07;;;;;;;4.03;1.88;;;23.10;91.20;;;;;;4945249;28;20113;-63
2023/06/28 08:11:33;;;;;;;6.60;2.13;;;22.70;90.60;;;;;;5000802;28;20407;-63
2023/06/28 08:13:59;;;;;;;6.00;2.20;;;22.50;91.40;;;;;;4969902;28;20105;-64
2023/06/28 08:16:24;;;;;;;7.10;2.67;;;22.20;92.60;;;;;;4971512;28;20049;-65
2023/06/28 08:18:50;;;;;;;7.10;2.78;;;22.10;93.90;;;;;;4973340;28;20060;-63
2023/06/28 08:21:15;;;;;;;8.27;2.35;;;22.00;93.90;;;;;;4970877;28;20499;-63
2023/06/28 08:23:41;;;;;;;6.72;2.40;;;21.80;93.90;;;;;;4970854;28;20723;-61
2023/06/28 08:26:07;;;;;;;6.55;2.53;;;21.80;93.20;;;;;;4971418;28;20113;-65
2023/06/28 08:28:32;;;;;;;6.30;2.40;;;21.80;93.80;;;;;;4975023;28;20097;-63
2023/06/28 08:30:58;;;;;;;5.00;2.05;;;21.70;93.40;;;;;;4974408;28;20035;-63
2023/06/28 08:33:24;;;;;;;6.03;2.13;;;21.70;93.40;;;;;;4969646;28;20034;-63
2023/06/28 08:35:50;;;;;;;8.07;2.30;;;21.70;94.70;;;;;;4985002;28;20114;-66
2023/06/28 08:38:16;;;;;;;6.57;1.95;;;21.80;92.90;;;;;;4969070;28;20486;-61
2023/06/28 08:40:41;;;;;;;6.70;2.03;;;21.80;93.90;;;;;;4969152;28;20034;-65
2023/06/28 08:43:10;;;;;;;7.28;2.35;;;21.90;94.60;;;;;;4973006;28;20027;-65
2023/06/28 08:45:36;;;;;;;6.90;2.63;;;21.80;94.30;;;;;;4970519;28;20129;-64
2023/06/28 08:48:04;;;;;;;8.88;2.30;;;21.90;93.50;;;;;;4968042;28;20031;-64
2023/06/28 08:50:30;;;;;;;5.90;2.20;;;21.80;92.80;;;;;;4974170;28;20113;-64
2023/06/28 08:52:56;;;;;;;7.88;2.00;;;22.10;92.60;;;;;;4969185;28;20022;-64
2023/06/28 08:55:23;;;;;;;5.93;1.60;;;22.20;92.60;;;;;;4963136;28;20031;-64
2023/06/28 08:57:49;;;;;;;9.13;1.75;;;22.30;93.80;;;;;;4965707;28;20023;-63
2023/06/28 09:00:15;;;;;;;3.70;1.27;;;22.00;92.00;;;;;;4967783;28;20050;-64
2023/06/28 09:02:42;;;;;;;5.70;1.30;;;22.10;92.90;;;;;;4970834;28;20469;-64
2023/06/28 09:05:10;;;;;;;5.40;1.50;;;21.70;92.90;;;;;;4970411;28;20106;-62
2023/06/28 09:07:39;;;;;;;4.65;1.60;;;21.60;91.70;;;;;;4968162;28;20027;-62
2023/06/28 09:10:06;;;;;;;6.78;1.88;;;21.60;93.00;;;;;;4949215;28;20047;-65
2023/06/28 09:12:33;;;;;;;5.97;1.30;;;21.60;92.70;;;;;;4966559;28;20388;-61
2023/06/28 09:20:56;;;;;;;5.18;1.60;;;22.00;91.60;;;;;;4988229;28;20100;-64
2023/06/28 09:23:27;;;;;;;5.22;1.33;;;22.10;91.40;;;;;;5006886;28;20113;-63
2023/06/28 09:25:53;;;;;;;4.47;1.67;;;22.20;91.20;;;;;;4998022;28;20037;-62
2023/06/28 09:28:21;;;;;;;8.18;2.15;;;22.40;92.40;;;;;;4977291;28;20063;-62
2023/06/28 09:30:56;;;;;;;5.93;2.30;;;22.40;91.40;;;;;;4973291;28;20035;-62
2023/06/28 09:33:23;;;;;;;4.35;2.20;;;22.20;91.60;;;;;;4975601;28;20053;-63
2023/06/28 09:35:56;;;;;;;6.78;2.45;;;22.00;92.30;;;;;;4974687;28;20038;-63
2023/06/28 09:38:23;;;;;;;4.55;1.63;;;22.20;91.30;;;;;;4971358;28;20056;-64
2023/06/28 09:40:56;;;;;;;7.13;1.98;;;21.90;92.30;;;;;;4975859;28;20553;-62
2023/06/28 09:43:23;;;;;;;5.45;1.92;;;22.00;93.10;;;;;;4978286;28;20034;-63
2023/06/28 09:45:49;;;;;;;5.00;1.80;;;22.30;92.50;;;;;;4980145;28;20173;-63
2023/06/28 09:48:14;;;;;;;3.28;1.60;;;22.50;91.60;;;;;;4977735;28;20093;-64
2023/06/28 09:50:44;;;;;;;4.78;2.20;;;22.40;91.80;;;;;;4983875;28;20507;-61
2023/06/28 09:53:21;;;;;;;9.05;2.15;;;22.00;92.10;;;;;;4979127;28;20074;-63
2023/06/28 09:55:50;;;;;;;6.60;2.28;;;21.70;92.50;;;;;;4984356;28;20448;-65
2023/06/28 09:58:20;;;;;;;4.53;2.15;;;21.60;93.70;;;;;;4985372;28;20035;-63
2023/06/28 10:00:47;;;;;;;9.23;2.42;;;21.50;94.20;;;;;;4986468;28;20100;-62
2023/06/28 10:03:15;;;;;;;6.90;2.50;;;21.40;94.30;;;;;;4983061;28;20029;-63
2023/06/28 10:05:42;;;;;;;6.68;2.25;;;21.50;94.80;;;;;;4987020;28;20105;-62
2023/06/28 10:08:10;;;;;;;6.57;2.30;;;21.70;93.80;;;;;;4977717;28;20026;-63
2023/06/28 10:10:37;;;;;;;4.25;2.50;;;21.60;93.40;;;;;;4972570;28;20038;-63
2023/06/28 10:13:05;;;;;;;11.43;2.28;;;21.90;94.70;;;;;;4985431;28;20037;-63
2023/06/28 10:15:43;;;;;;;5.88;2.20;;;22.30;92.50;;;;;;4983153;28;20050;-62
2023/06/28 10:18:09;;;;;;;12.85;2.53;;;22.40;92.40;;;;;;4978514;28;20011;-63
2023/06/28 10:20:37;;;;;;;8.10;2.85;;;22.40;92.20;;;;;;4988805;28;20056;-63
2023/06/28 10:23:05;;;;;;;4.80;1.58;;;22.30;92.10;;;;;;4985945;28;20033;-61
2023/06/28 10:25:32;;;;;;;5.20;2.00;;;22.50;92.40;;;;;;4983560;28;20101;-63
2023/06/28 10:27:58;;;;;;;5.90;1.98;;;22.30;90.90;;;;;;4976634;28;20031;-60
2023/06/28 10:30:24;;;;;;;15.15;2.22;;;22.30;92.30;;;;;;4984924;28;20057;-63
2023/06/28 10:32:51;;;;;;;4.72;1.80;;;22.30;91.90;;;;;;4986294;28;20113;-63
2023/06/28 10:35:17;;;;;;;6.90;2.47;;;22.20;92.20;;;;;;4983856;28;20041;-64
2023/06/28 10:37:43;;;;;;;4.28;2.38;;;22.00;92.30;;;;;;4990252;28;20034;-66
2023/06/28 10:40:09;;;;;;;5.13;2.15;;;22.20;91.70;;;;;;4988272;28;20038;-63
2023/06/28 10:42:39;;;;;;;4.85;1.73;;;22.10;91.30;;;;;;4984559;28;20129;-64
2023/06/28 10:45:07;;;;;;;9.63;1.80;;;22.20;92.30;;;;;;4984267;28;20023;-61
2023/06/28 10:47:37;;;;;;;5.95;1.98;;;22.10;91.30;;;;;;4988311;28;20109;-62
2023/06/28 10:50:14;;;;;;;5.10;2.15;;;22.00;91.80;;;;;;4983558;28;20526;-63
2023/06/28 10:52:45;;;;;;;7.47;1.98;;;22.00;91.90;;;;;;4987281;28;20156;-63
2023/06/28 10:55:14;;;;;;;4.75;1.70;;;22.10;92.80;;;;;;4981738;28;20061;-62
2023/06/28 10:57:39;;;;;;;11.32;2.35;;;22.20;93.50;;;;;;4987371;28;20045;-65
2023/06/28 11:00:26;;;;;;;5.18;2.08;;;22.40;91.50;;;;;;4985130;28;20030;-62
2023/06/28 11:03:01;;;;;;;7.05;1.75;;;22.40;91.50;;;;;;4973680;28;20411;-64
2023/06/28 11:05:45;;;;;;;11.43;2.40;;;22.70;92.10;;;;;;4975298;28;20031;-64
2023/06/28 11:08:13;;;;;;;8.00;2.28;;;22.80;89.10;;;;;;4985750;28;20026;-63
2023/06/28 11:10:54;;;;;;;9.20;2.95;;;22.70;90.20;;;;;;4967561;28;20050;-62
2023/06/28 11:13:51;;;;;;;6.78;2.13;;;23.00;90.60;;;;;;4981079;28;20025;-63
2023/06/28 11:16:24;;;;;;;8.80;2.97;;;23.00;90.90;;;;;;4976282;28;20038;-63
2023/06/28 11:18:52;;;;;;;12.00;3.40;;;23.60;91.50;;;;;;4979514;28;20105;-62
2023/06/28 11:21:23;;;;;;;7.28;3.03;;;23.90;88.20;;;;;;4981062;28;20546;-64
2023/06/28 11:23:53;;;;;;;11.18;3.25;;;24.20;87.00;;;;;;4980888;28;20054;-62
2023/06/28 11:26:35;;;;;;;13.27;3.20;;;24.30;87.40;;;;;;4976656;28;20019;-64
2023/06/28 11:29:01;;;;;;;3.92;2.65;;;24.40;85.30;;;;;;4982135;28;20427;-63
2023/06/28 11:31:38;;;;;;;6.18;2.95;;;24.60;84.70;;;;;;4977722;28;20033;-61
2023/06/28 11:34:04;;;;;;;8.10;2.67;;;24.60;85.50;;;;;;4984000;28;20455;-62
2023/06/28 11:36:31;;;;;;;8.82;2.70;;;24.70;83.80;;;;;;4978356;28;20054;-64
2023/06/28 11:38:57;;;;;;;11.52;3.40;;;25.10;84.80;;;;;;4976300;28;20109;-62
2023/06/28 11:41:23;;;;;;;13.02;3.92;;;24.90;85.20;;;;;;4977489;28;20027;-64
2023/06/28 11:43:49;;;;;;;13.45;3.72;;;24.90;83.20;;;;;;4975591;28;20031;-62
2023/06/28 11:46:22;;;;;;;7.82;2.88;;;24.70;83.60;;;;;;4974829;28;20030;-63
2023/06/28 11:48:49;;;;;;;7.05;2.85;;;24.80;83.70;;;;;;4977941;28;20034;-63
2023/06/28 11:51:16;;;;;;;8.35;4.25;;;24.70;85.00;;;;;;4979674;28;20121;-63
2023/06/28 11:53:49;;;;;;;15.02;3.72;;;24.60;81.80;;;;;;4988817;28;20038;-62
2023/06/28 11:56:14;;;;;;;7.97;3.58;;;24.20;83.00;;;;;;4988128;28;20034;-63
2023/06/28 11:58:40;;;;;;;8.65;3.35;;;23.90;87.40;;;;;;4983472;28;20077;-63
2023/06/28 12:01:19;;;;;;;8.32;2.97;;;23.80;87.90;;;;;;4981166;28;20053;-62
2023/06/28 12:03:45;;;;;;;9.57;3.00;;;23.70;88.00;;;;;;4983864;28;20040;-63
2023/06/28 12:06:10;;;;;;;9.30;3.90;;;23.60;86.30;;;;;;4984632;28;20026;-63
2023/06/28 12:08:42;;;;;;;9.98;3.20;;;23.70;87.60;;;;;;4983051;28;20036;-62
2023/06/28 12:11:09;;;;;;;6.30;2.92;;;23.70;87.20;;;;;;4961109;28;20057;-64
2023/06/28 12:13:34;;;;;;;13.20;3.90;;;23.80;87.80;;;;;;4987414;28;20044;-60
2023/06/28 12:16:14;;;;;;;9.20;3.95;;;24.00;89.20;;;;;;4975225;28;20491;-63
2023/06/28 12:19:02;;;;;;;9.75;3.63;;;23.80;87.80;;;;;;4977858;28;20038;-63
2023/06/28 12:21:29;;;;;;;8.27;3.83;;;23.90;86.90;;;;;;4978580;28;20061;-64
2023/06/28 12:24:21;;;;;;;7.38;3.22;;;23.60;90.10;;;;;;4983983;28;20077;-63
2023/06/28 12:26:51;;;;;;;7.68;3.83;;;23.80;86.50;;;;;;4983047;28;20065;-63
2023/06/28 12:29:21;;;;;;;9.00;4.50;;;23.90;85.70;;;;;;4977865;28;20039;-63
2023/06/28 12:31:52;;;;;;;9.25;3.63;;;24.10;86.80;;;;;;4979223;28;20399;-63
2023/06/28 12:34:29;;;;;;;10.25;3.42;;;24.50;84.70;;;;;;4982520;28;20351;-62
2023/06/28 12:37:00;;;;;;;9.60;3.40;;;24.70;85.30;;;;;;4979129;28;20387;-63
2023/06/28 12:39:28;;;;;;;8.80;2.83;;;25.20;83.10;;;;;;4977766;28;20038;-65
2023/06/28 12:42:08;;;;;;;11.57;3.55;;;25.30;82.00;;;;;;4975812;28;20031;-63
2023/06/28 12:44:52;;;;;;;6.38;2.92;;;24.90;82.80;;;;;;4980013;28;20538;-63
2023/06/28 12:47:20;;;;;;;8.50;3.55;;;24.60;81.70;;;;;;4981176;28;20057;-62
2023/06/28 12:49:46;;;;;;;11.60;3.10;;;24.60;83.70;;;;;;4976097;28;20448;-62
2023/06/28 12:52:12;;;;;;;8.05;3.30;;;24.80;82.30;;;;;;4979154;28;20066;-61